• Join FlightAware (Why Join?)
  • Login
  • US Flag 
04:07AM EDT


 

Airport Tracker/Info


-or-


 

Live Flight TrackerFlight Track Log ✈ DAL268 ✈ 16-May-2013 ✈ KATL - KJFK

Flight Track Log - Related Links

Times and Time Zones

All times are in EDT time to prevent confusion due to time zone crossing. See the DAL268 flight status page for this flight to view local times or setup timezone preferences in your user account.

Time Position Orientation Groundspeed Altitude Reporting Facility
EDT Latitude Longitude Course Direction KTS MPH feet Rate Location/Type
06:33PM 33.6286 -84.5003 64° Northeast 442 509 2,600  Level Atlanta Center
06:34PM 33.5833 -84.5667 231° Southwest 261 300 4,700 2,520 Climbing Atlanta TRACON
06:35PM 33.5167 -84.5833 192° South 265 305 7,600 2,580 Climbing Atlanta TRACON
06:36PM 33.4500 -84.5500 157° South 301 346 9,900 1,500 Climbing Atlanta TRACON
06:38PM 33.4558 -84.3228 88° East 354 407 12,300 1,500 Climbing Atlanta Center
06:39PM 33.6677 -83.5901 64° Northeast  Level FlightAware Approximate
06:39PM 33.4894 -84.1908 73° East 407 468 14,600  Level Atlanta Center
06:40PM 33.5439 -84.0661 62° Northeast 415 478 16,800 1,920 Climbing Atlanta Center
06:41PM 33.5981 -83.9367 63° Northeast 423 487 18,500 1,560 Climbing Atlanta Center
06:42PM 33.6311 -83.7919 75° East 442 509 20,000 1,500 Climbing Atlanta Center
06:43PM 33.6642 -83.6419 75° East 456 525 21,500 1,500 Climbing Atlanta Center
06:44PM 33.7200 -83.4944 65° Northeast 467 537 23,000 1,260 Climbing Atlanta Center
06:45PM 33.7778 -83.3542 64° Northeast 475 547 24,100 1,140 Climbing Atlanta Center
06:46PM 33.8372 -83.2036 65° Northeast 480 552 25,300 1,140 Climbing Atlanta Center
06:47PM 33.9008 -83.0403 65° Northeast 488 562 26,400 900 Climbing Atlanta Center
06:48PM 33.9619 -82.8867 64° Northeast 488 562 27,200 600 Climbing Atlanta Center
06:49PM 34.0253 -82.7356 63° Northeast 495 570 27,600 1,140 Climbing Atlanta Center
06:50PM 34.0842 -82.5842 65° Northeast 495 570 29,500 1,200 Climbing Atlanta Center
06:51PM 34.1367 -82.4525 64° Northeast 487 560 30,000 720 Climbing Atlanta Center
06:52PM 34.1953 -82.3033 65° Northeast 487 560 31,000 480 Climbing Atlanta Center
06:53PM 34.2514 -82.1564 65° Northeast 487 560 31,000  Level Atlanta Center
06:54PM 34.3203 -82.0142 60° Northeast 487 560 31,000  Level Atlanta Center
06:55PM 34.3908 -81.8739 59° Northeast 482 555 31,000  Level Atlanta Center
06:56PM 34.4614 -81.7336 59° Northeast 482 555 31,000  Level Atlanta Center
06:57PM 34.5378 -81.5803 59° Northeast 482 555 31,000  Level Atlanta Center
06:58PM 34.6036 -81.4419 60° Northeast 476 548 31,000  Level Atlanta Center
06:59PM 34.6658 -81.3239 57° Northeast 471 542 31,000  Level Atlanta Center
07:00PM 34.7336 -81.1828 60° Northeast 478 550 31,000  Level Atlanta Center
07:01PM 34.8069 -81.0258 60° Northeast 478 550 31,000  Level Atlanta Center
07:03PM 34.9178 -80.8022 59° Northeast 474 545 31,000  Level Washington Center
07:04PM 34.9844 -80.6619 60° Northeast 475 547 31,000  Level Washington Center
07:05PM 35.0550 -80.5192 59° Northeast 475 547 31,000  Level Washington Center
07:06PM 35.1233 -80.3761 60° Northeast 481 554 31,000  Level Washington Center
07:07PM 35.1964 -80.2231 60° Northeast 472 543 31,000  Level Washington Center
07:08PM 35.2622 -80.0792 61° Northeast 472 543 31,000  Level Washington Center
07:09PM 35.3239 -79.9375 62° Northeast 472 543 31,000  Level Washington Center
07:10PM 35.3711 -79.7847 69° East 467 537 31,000  Level Washington Center
07:11PM 35.4158 -79.6367 70° East 467 537 31,000  Level Washington Center
07:12PM 35.4606 -79.4861 70° East 467 537 31,000  Level Washington Center
07:13PM 35.5092 -79.3328 69° East 462 532 31,000  Level Washington Center
07:14PM 35.5556 -79.1792 70° East 468 539 31,000  Level Washington Center
07:15PM 35.5978 -79.0278 71° East 468 539 31,000  Level Washington Center
07:16PM 35.6436 -78.8764 70° East 468 539 31,000  Level Washington Center
07:17PM 35.6917 -78.7222 69° East 468 539 31,000  Level Washington Center
07:18PM 35.7372 -78.5656 70° East 473 544 31,000  Level Washington Center
07:19PM 35.7786 -78.4083 72° East 478 550 31,000  Level Washington Center
07:20PM 35.8239 -78.2511 70° East 478 550 31,000  Level Washington Center
07:21PM 35.8625 -78.1139 71° East 478 550 31,000  Level Washington Center
07:22PM 35.9053 -77.9614 71° East 478 550 31,000  Level Washington Center
07:23PM 35.9500 -77.8064 70° East 478 550 31,000  Level Washington Center
07:24PM 36.0047 -77.6589 65° Northeast 478 550 31,000  Level Washington Center
07:25PM 36.0842 -77.5247 54° Northeast 471 542 31,000  Level Washington Center
07:26PM 36.1739 -77.3828 52° Northeast 476 548 31,000  Level Washington Center
07:27PM 36.2572 -77.2508 52° Northeast 476 548 31,000  Level Washington Center
07:28PM 36.3297 -77.1286 54° Northeast 482 555 31,000  Level Washington Center
07:29PM 36.3817 -76.9775 67° East 482 555 31,000  Level Washington Center
07:30PM 36.3897 -76.8125 86° East 467 537 31,000 -60 Level Washington Center
07:31PM 36.4058 -76.6450 83° East 472 543 30,900  Descending Washington Center
07:32PM 36.4864 -76.5194 51° Northeast 442 509 31,000  Climbing Washington Center
07:33PM 36.6036 -76.4458 27° Northeast 437 503 31,000  Level Washington Center
07:34PM 36.7189 -76.3692 28° Northeast 453 521 31,000  Level Washington Center
07:35PM 36.8361 -76.2925 28° Northeast 460 529 31,000  Level Washington Center
07:36PM 36.9514 -76.2208 26° Northeast 460 529 31,000  Level Washington Center
07:37PM 37.0789 -76.1358 28° Northeast 460 529 31,000  Level Washington Center
07:38PM 37.1942 -76.0586 28° Northeast 460 529 31,000  Level Washington Center
07:39PM 37.3092 -75.9836 27° Northeast 460 529 31,000  Level Washington Center
07:40PM 37.4197 -75.9056 29° Northeast 455 524 31,000  Level Washington Center
07:41PM 37.5347 -75.8275 28° Northeast 455 524 31,000  Level Washington Center
07:42PM 37.6494 -75.7492 28° Northeast 455 524 31,000  Level Washington Center
07:43PM 37.7622 -75.6681 30° Northeast 455 524 31,000  Level Washington Center
07:44PM 37.8769 -75.5917 28° Northeast 455 524 31,000  Level Washington Center
07:45PM 37.9894 -75.5181 27° Northeast 455 524 31,000  Level Washington Center
07:46PM 38.1000 -75.4414 29° Northeast 455 524 31,000  Level Washington Center
07:47PM 38.2167 -75.3725 25° Northeast 455 524 31,000  Level Washington Center
07:48PM 38.3186 -75.3033 28° Northeast 455 524 31,000  Level Washington Center
07:49PM 38.4311 -75.2286 27° Northeast 455 524 31,000  Level Washington Center
07:50PM 38.5497 -75.1536 26° Northeast 455 524 31,000  Level Washington Center
07:51PM 38.6661 -75.0839 25° Northeast 460 529 31,000  Level Washington Center
07:52PM 38.7825 -75.0031 28° Northeast 460 529 31,000  Level Washington Center
07:53PM 38.8989 -74.9300 26° Northeast 466 536 31,000  Level Washington Center
07:54PM 39.0153 -74.8569 26° Northeast 466 536 31,000 -660 Level Washington Center
07:55PM 39.1292 -74.7728 30° Northeast 461 531 29,700 -1,860 Descending Washington Center
07:56PM 39.2286 -74.6619 41° Northeast 461 531 27,300 -2,220 Descending Washington Center
07:57PM 39.2994 -74.5831 41° Northeast 464 534 26,000 -2,100 Descending New York Center
07:58PM 39.3856 -74.4939 39° Northeast 464 534 23,800 -2,400 Descending New York Center
07:59PM 39.4850 -74.3806 41° Northeast 443 510 21,300 -2,340 Descending New York Center
08:00PM 39.5736 -74.2828 40° Northeast 431 496 19,200 -1,200 Descending New York Center
08:01PM 39.6597 -74.1900 40° Northeast 410 472 19,000 -1,020 Descending New York Center
08:02PM 39.7475 -74.1106 35° Northeast 390 449 17,200 -1,860 Descending New York Center
08:03PM 39.8308 -74.0361 34° Northeast 376 433 15,400 -1,860 Descending New York Center
08:04PM 39.9058 -73.9667 35° Northeast 362 417 13,600 -2,040 Descending New York Center
08:05PM 39.9869 -73.8944 34° Northeast 362 417 11,400 -1,380 Descending New York Center
08:06PM 40.0761 -73.8281 30° Northeast 346 398 10,900 -960 Descending New York Center
08:07PM 40.1503 -73.7797 26° Northeast 308 354 9,500 -1,500 Descending New York Center
08:08PM 40.2167 -73.7333 28° Northeast 284 327 8,000 -1,320 Descending New York TRACON
08:09PM 40.3000 -73.7000 17° North 276 318 7,000 -540 Descending New York TRACON
08:10PM 40.3667 -73.6500 30° Northeast 281 323 7,000  Level New York TRACON
08:11PM 40.4333 -73.5833 37° Northeast 281 323 7,000 -300 Level New York TRACON
08:12PM 40.4833 -73.5333 37° Northeast 282 325 6,400 -1,020 Descending New York TRACON
08:13PM 40.5500 -73.4667 37° Northeast 282 325 5,000 -660 Descending New York TRACON
08:14PM 40.6167 -73.4167 30° Northeast 276 318 5,100  Climbing New York TRACON
08:15PM 40.6833 -73.4333 349° North 256 295 5,000 -300 Descending New York TRACON
08:16PM 40.7500 -73.4500 349° North 220 253 4,600 -540 Descending New York TRACON
08:17PM 40.8167 -73.4500 360° North 213 245 4,000 -780 Descending New York TRACON
08:18PM 40.8333 -73.5000 294° West 209 241 3,100 -540 Descending New York TRACON
08:19PM 40.8167 -73.5833 255° West 202 232 3,000 -60 Descending New York TRACON
08:20PM 40.8000 -73.6500 252° West 194 223 3,000 -180 Level New York TRACON
08:21PM 40.7667 -73.6833 217° Southwest 185 213 2,700 -600 Descending New York TRACON
08:22PM 40.7167 -73.7167 207° Southwest 177 204 1,800 -900 Descending New York TRACON
08:23PM 40.6833 -73.7333 201° Southwest 136 157 1,000 -840 Descending New York TRACON
08:25PM 40.6333 -73.7667 208° Southwest  Level FlightAware Approximate
08:32PM 40.6398 -73.7789 208° Southwest  Level Estimated